createdAt,value
2022-10-19T00:01:36.609Z,114.05
2022-10-19T00:06:41.275Z,112.13
2022-10-19T00:11:45.955Z,100.30
2022-10-19T00:16:51.115Z,121.72
2022-10-19T00:21:56.305Z,95.43
2022-10-19T00:27:00.079Z,109.30
2022-10-19T00:32:03.890Z,108.60
2022-10-19T00:37:08.388Z,89.55
2022-10-19T00:42:12.231Z,84.38
2022-10-19T00:47:15.872Z,75.00
2022-10-19T00:52:22.641Z,79.78
2022-10-19T00:57:28.018Z,78.63
2022-10-19T01:02:32.530Z,97.05
2022-10-19T01:07:37.715Z,89.93
2022-10-19T01:12:53.169Z,93.03
2022-10-19T01:18:02.708Z,104.00
2022-10-19T01:23:32.013Z,105.65
2022-10-19T01:28:45.608Z,90.23
2022-10-19T01:33:52.075Z,99.18
2022-10-19T01:38:57.670Z,102.35
2022-10-19T01:44:02.903Z,107.57
2022-10-19T01:49:10.502Z,97.97
2022-10-19T01:54:15.310Z,106.03
2022-10-19T01:59:19.610Z,117.50
2022-10-19T02:04:49.395Z,97.97
2022-10-19T02:09:52.917Z,111.47
2022-10-19T02:14:59.506Z,106.28
2022-10-19T02:20:04.335Z,107.82
2022-10-19T02:25:08.316Z,104.35
2022-10-19T02:30:12.337Z,138.40
2022-10-19T02:35:17.776Z,159.30
2022-10-19T02:40:21.327Z,157.90
2022-10-19T02:45:27.072Z,130.13
2022-10-19T02:50:32.615Z,129.07
2022-10-19T02:55:35.806Z,154.98
2022-10-19T03:00:42.208Z,140.13
2022-10-19T03:05:46.967Z,169.70
2022-10-19T03:10:50.216Z,134.90
2022-10-19T03:15:53.538Z,164.35
2022-10-19T03:21:05.535Z,199.05
2022-10-19T03:26:12.147Z,186.35
2022-10-19T03:31:15.804Z,177.60
2022-10-19T03:36:22.223Z,210.32
2022-10-19T03:41:27.670Z,187.35
2022-10-19T03:46:30.783Z,205.13
2022-10-19T03:51:35.453Z,180.38
2022-10-19T03:56:38.642Z,179.30
2022-10-19T04:01:44.161Z,129.63
2022-10-19T04:06:50.078Z,152.70
2022-10-19T04:11:53.397Z,151.93
2022-10-19T04:16:56.601Z,154.50
2022-10-19T04:22:01.065Z,181.35
2022-10-19T04:27:04.623Z,177.32
2022-10-19T04:32:08.618Z,168.00
2022-10-19T04:37:13.170Z,184.70
2022-10-19T04:42:16.778Z,152.60
2022-10-19T04:47:20.788Z,145.88
2022-10-19T04:52:25.385Z,149.05
2022-10-19T04:57:28.671Z,153.93
2022-10-19T05:02:31.773Z,122.60
2022-10-19T05:07:38.577Z,126.25
2022-10-19T05:12:41.664Z,126.78
2022-10-19T05:17:45.407Z,121.85
2022-10-19T05:22:50.839Z,110.60
2022-10-19T05:27:54.356Z,129.23
2022-10-19T05:32:57.421Z,118.82
2022-10-19T05:38:01.912Z,117.40
2022-10-19T05:43:05.031Z,100.78
2022-10-19T05:48:08.194Z,96.70
2022-10-19T05:53:12.713Z,85.75
2022-10-19T05:58:15.824Z,95.63
2022-10-19T06:46:13.004Z,105.20
2022-10-19T07:08:01.703Z,78.32
2022-10-19T07:13:04.987Z,65.88
2022-10-19T07:18:08.348Z,74.50
2022-10-19T07:23:13.119Z,65.18
2022-10-19T07:28:16.248Z,64.40
2022-10-19T07:33:19.413Z,55.95
2022-10-19T07:38:23.908Z,55.92
2022-10-19T07:56:34.923Z,46.50
2022-10-19T08:01:41.912Z,41.33
2022-10-19T08:06:45.309Z,51.60
2022-10-19T08:11:49.865Z,40.20
2022-10-19T08:16:53.560Z,46.10
2022-10-19T08:21:56.842Z,45.13
2022-10-19T08:27:02.667Z,37.50
2022-10-19T08:32:06.870Z,43.70
2022-10-19T08:37:19.951Z,39.17
2022-10-19T08:42:38.470Z,35.13
2022-10-19T08:47:48.828Z,34.97
2022-10-19T08:52:56.189Z,32.35
2022-10-19T08:58:04.990Z,35.92
2022-10-19T09:03:20.076Z,34.67
2022-10-19T09:08:30.606Z,29.13
2022-10-19T09:13:47.216Z,34.80
2022-10-19T09:18:57.422Z,33.50
2022-10-19T09:24:06.815Z,31.35
2022-10-19T09:34:18.401Z,26.70
2022-10-19T09:39:23.487Z,26.38
2022-10-19T09:44:32.974Z,24.20
2022-10-19T09:49:42.911Z,23.25
2022-10-19T09:54:47.257Z,21.35
2022-10-19T09:59:53.856Z,23.15
2022-10-19T10:05:31.441Z,23.85
2022-10-19T10:10:38.435Z,17.85
2022-10-19T10:15:45.006Z,20.88
2022-10-19T10:21:07.116Z,20.25
2022-10-19T10:26:21.530Z,21.02
2022-10-19T10:31:27.706Z,18.40
2022-10-19T10:36:34.616Z,16.23
2022-10-19T10:41:39.563Z,16.73
2022-10-19T10:46:46.240Z,14.13
2022-10-19T10:51:52.907Z,12.77
2022-10-19T10:57:04.398Z,12.70
2022-10-19T11:02:35.948Z,13.90
2022-10-19T11:07:43.121Z,13.93
2022-10-19T11:12:47.961Z,12.10
2022-10-19T11:18:03.150Z,10.57
2022-10-19T11:23:12.217Z,9.55
2022-10-19T11:28:25.268Z,10.30
2022-10-19T11:38:55.527Z,10.95
2022-10-19T11:44:15.417Z,11.88
2022-10-19T11:49:30.950Z,12.48
2022-10-19T11:54:40.459Z,13.10
2022-10-19T11:59:57.600Z,10.73
2022-10-19T12:05:13.337Z,13.85
2022-10-19T12:10:23.526Z,12.75
2022-10-19T12:15:30.660Z,9.27
2022-10-19T12:20:37.113Z,9.75
2022-10-19T12:25:40.241Z,8.20
2022-10-19T12:30:44.409Z,6.85
2022-10-19T12:36:05.386Z,5.25
2022-10-19T12:41:11.416Z,4.95
2022-10-19T12:46:19.127Z,4.38
2022-10-19T12:51:24.671Z,3.80
2022-10-19T12:56:28.330Z,2.85
2022-10-19T13:01:44.458Z,2.17
2022-10-19T13:06:50.596Z,2.80
2022-10-19T13:12:30.077Z,3.28
2022-10-19T13:17:43.858Z,2.80
2022-10-19T13:22:49.271Z,5.40
2022-10-19T13:27:53.587Z,2.63
2022-10-19T13:32:56.730Z,3.35
2022-10-19T13:38:26.877Z,5.28
2022-10-19T13:43:32.048Z,4.80
2022-10-19T13:48:40.039Z,4.57
2022-10-19T13:53:45.575Z,3.28
2022-10-19T13:59:28.829Z,3.05
2022-10-19T14:04:37.601Z,2.70
2022-10-19T14:10:04.694Z,2.75
2022-10-19T14:15:25.053Z,3.72
2022-10-19T14:20:30.778Z,4.35
2022-10-19T14:25:35.542Z,3.28
2022-10-19T14:30:40.181Z,3.60
2022-10-19T14:35:45.055Z,3.50
2022-10-19T14:40:50.390Z,4.88
2022-10-19T14:46:14.069Z,3.50
2022-10-19T14:51:23.193Z,5.35
2022-10-19T14:56:30.532Z,3.90
2022-10-19T15:01:36.464Z,3.35
2022-10-19T15:06:42.474Z,4.35
2022-10-19T15:11:49.817Z,4.82
2022-10-19T15:16:54.616Z,3.42
2022-10-19T15:22:17.430Z,5.03
2022-10-19T15:27:23.208Z,8.50
2022-10-19T15:32:33.769Z,4.93
2022-10-19T15:37:37.328Z,7.03
2022-10-19T15:42:44.553Z,6.25
2022-10-19T15:47:50.670Z,7.38
2022-10-19T15:52:54.742Z,6.65
2022-10-19T15:58:01.547Z,8.35
2022-10-19T16:03:05.197Z,7.95
2022-10-19T16:08:11.608Z,7.10
2022-10-19T16:13:17.561Z,7.53
2022-10-19T16:18:20.820Z,9.82
2022-10-19T16:23:26.470Z,8.10
2022-10-19T16:28:31.531Z,7.78
2022-10-19T16:33:35.077Z,7.53
2022-10-19T16:38:38.758Z,8.60
2022-10-19T16:43:43.710Z,11.07
2022-10-19T16:48:47.445Z,12.00
2022-10-19T16:53:51.901Z,10.80
2022-10-19T16:58:57.566Z,10.45
2022-10-19T17:04:01.173Z,8.82
2022-10-19T17:14:30.198Z,11.30
2022-10-19T17:19:33.585Z,10.02
2022-10-19T17:24:39.290Z,9.60
2022-10-19T17:29:44.148Z,12.07
2022-10-19T17:34:47.472Z,10.60
2022-10-19T17:39:53.409Z,12.70
2022-10-19T17:45:00.986Z,12.80
2022-10-19T17:50:04.225Z,33.33
2022-10-19T17:55:12.621Z,12.52
2022-10-19T18:00:18.015Z,9.77
2022-10-19T18:05:21.281Z,14.05
2022-10-19T18:10:26.087Z,13.98
2022-10-19T18:15:30.908Z,12.70
2022-10-19T18:20:34.636Z,10.68
2022-10-19T18:25:53.436Z,11.23
2022-10-19T18:31:07.536Z,12.45
2022-10-19T18:36:11.375Z,13.35
2022-10-19T18:41:18.391Z,13.13
2022-10-19T18:46:25.238Z,13.40
2022-10-19T18:51:31.903Z,10.38
2022-10-19T18:56:36.575Z,9.90
2022-10-19T19:01:41.256Z,9.85
2022-10-19T19:06:44.885Z,11.50
2022-10-19T19:11:48.228Z,14.60
2022-10-19T19:16:53.535Z,12.63
2022-10-19T19:21:56.954Z,12.45
2022-10-19T19:27:03.764Z,9.90
2022-10-19T19:32:09.532Z,10.27
2022-10-19T19:37:13.214Z,9.38
2022-10-19T19:42:46.206Z,9.35
2022-10-19T19:47:50.995Z,10.20
2022-10-19T19:52:54.740Z,10.75
2022-10-19T19:57:58.136Z,10.80
2022-10-19T20:03:03.211Z,32.92
2022-10-19T20:08:07.595Z,38.25
2022-10-19T20:13:11.543Z,16.73
2022-10-19T20:18:16.048Z,12.48
2022-10-19T20:23:19.349Z,10.75
2022-10-19T20:28:26.143Z,11.75
2022-10-19T20:33:31.982Z,11.93
2022-10-19T20:38:35.532Z,10.73
2022-10-19T20:49:12.748Z,10.57
2022-10-19T20:54:16.288Z,12.02
2022-10-19T20:59:22.347Z,13.32
2022-10-19T21:04:26.910Z,15.80
2022-10-19T21:09:30.092Z,13.73
2022-10-19T21:14:33.560Z,15.50
2022-10-19T21:19:38.584Z,13.75
2022-10-19T21:24:41.773Z,16.13
2022-10-19T21:29:45.444Z,13.27
2022-10-19T21:34:51.066Z,13.98
2022-10-19T21:39:55.587Z,13.07
2022-10-19T21:45:06.371Z,13.65
2022-10-19T21:50:22.794Z,18.25
2022-10-19T21:55:26.318Z,16.15
2022-10-19T22:00:29.671Z,17.88
2022-10-19T22:05:34.869Z,18.33
2022-10-19T22:10:39.069Z,19.67
2022-10-19T22:15:43.776Z,16.23
2022-10-19T22:20:48.526Z,14.63
2022-10-19T22:25:52.007Z,13.95
2022-10-19T22:30:55.661Z,14.32
2022-10-19T22:36:00.655Z,14.18
2022-10-19T22:41:05.185Z,18.63
2022-10-19T22:46:08.480Z,18.65
2022-10-19T22:51:13.125Z,17.80
2022-10-19T22:56:16.347Z,16.77
2022-10-19T23:01:19.579Z,20.65
2022-10-19T23:06:25.194Z,19.80
2022-10-19T23:11:28.779Z,20.23
2022-10-19T23:16:32.278Z,21.45
2022-10-19T23:21:36.769Z,17.70
2022-10-19T23:26:40.967Z,19.80
2022-10-19T23:31:45.015Z,18.35
2022-10-19T23:36:50.036Z,20.98
2022-10-19T23:41:53.702Z,21.50
2022-10-19T23:46:58.154Z,21.05
2022-10-19T23:52:03.213Z,21.63
2022-10-19T23:57:06.453Z,23.52
